Latest Weather Observations for Luncheon Hill

IDT60801

Issued at 10:05 pm EDT Sunday 23 November 2014 (issued every 30 minutes, with the page automatically refreshed every 10 minutes)

About weather observations | Map of weather stations | Latest weather observations for TAS | Other Formats
Station Details ID: 091259 Name: LUNCHEON HILL (FORESTRY) Lat: -41.15 Lon: 145.15 Height: 344.0 m
Data from the previous 72 hours. | See also: Recent months at Luncheon Hill
Date/Time
EDT
Temp
°C
App
Temp
°C
Dew
Point
Rel
Hum
%
Delta-T
°C
Wind Press
QNH
hPa
Press
MSL
hPa
Rain
since 9 am
mm
Dir
 
Spd
km/h
Gust
km/h
Spd
kts
Gust
kts
23/10:00pm 11.5 8.8 5.6 67 2.8 SW 9 11 5 6 - - 0.0
23/09:30pm 12.1 9.3 5.3 63 3.2 WSW 9 11 5 6 - - 0.0
23/09:00pm 12.2 9.3 4.9 61 3.4 WSW 9 13 5 7 - - 0.0
23/08:30pm 12.2 9.0 4.9 61 3.4 W 11 15 6 8 - - 0.0
23/08:00pm 13.3 9.6 4.5 55 4.1 W 13 26 7 14 - - 0.0
23/07:30pm 15.0 11.4 5.0 51 4.8 W 13 20 7 11 - - 0.0
23/07:00pm 15.6 11.1 4.3 47 5.4 W 17 26 9 14 - - 0.0
23/06:30pm 16.7 14.1 6.2 50 5.2 WSW 9 17 5 9 - - 0.0
23/06:00pm 16.6 12.8 5.9 49 5.3 W 15 26 8 14 - - 0.0
23/05:30pm 17.6 13.4 5.9 46 5.8 W 17 33 9 18 - - 0.0
23/05:00pm 17.6 13.0 5.5 45 6.0 WSW 19 32 10 17 - - 0.0
23/04:30pm 18.1 13.7 4.7 41 6.5 WSW 17 30 9 16 - - 0.0
23/04:00pm 18.5 13.9 5.4 42 6.5 W 19 28 10 15 - - 0.0
23/03:30pm 18.1 13.4 5.3 43 6.3 SW 19 28 10 15 - - 0.0
23/03:00pm 18.9 14.7 7.4 47 5.9 WSW 19 26 10 14 - - 0.0
23/02:30pm 18.3 14.6 6.2 45 6.1 WSW 15 26 8 14 - - 0.0
23/02:00pm 18.8 13.8 6.3 44 6.3 W 22 39 12 21 - - 0.0
23/01:30pm 18.6 15.1 7.1 47 5.9 WSW 15 30 8 16 - - 0.0
23/01:00pm 18.2 13.4 5.4 43 6.3 WNW 20 30 11 16 - - 0.0
23/12:30pm 18.4 15.2 6.9 47 5.9 WSW 13 24 7 13 - - 0.0
23/12:00pm 17.0 13.0 6.8 51 5.1 WSW 17 28 9 15 - - 0.0
23/11:30am 16.5 12.9 6.6 52 5.0 WSW 15 24 8 13 - - 0.0
23/11:00am 15.2 12.0 7.0 58 4.1 W 13 24 7 13 - - 0.0
23/10:30am 15.1 11.4 7.9 62 3.7 W 17 26 9 14 - - 0.0
23/10:00am 13.8 10.9 8.0 68 2.9 WSW 13 28 7 15 - - 0.0
23/09:30am 14.2 11.2 9.4 73 2.5 SW 15 28 8 15 - - 0.0
23/09:00am 12.8 10.5 8.9 77 2.0 SW 11 19 6 10 - - 0.8
23/08:30am 11.5 8.3 9.9 90 0.8 SW 17 24 9 13 - - 0.8
23/08:00am 10.4 7.2 10.1 98 0.2 SW 17 28 9 15 - - 0.8
23/07:30am 10.1 7.3 9.9 99 0.1 SW 15 24 8 13 - - 0.8
23/07:00am 9.8 7.3 9.7 99 0.1 SW 13 20 7 11 - - 0.8
23/06:30am 9.6 6.3 9.5 99 0.1 SW 17 22 9 12 - - 0.8
23/06:00am 9.4 6.4 9.3 99 0.1 SW 15 20 8 11 - - 0.8
23/05:30am 9.6 6.7 9.5 99 0.1 SW 15 20 8 11 - - 0.8
23/05:00am 9.7 6.4 9.6 99 0.1 SW 17 26 9 14 - - 0.8
23/04:30am 9.6 5.9 9.5 99 0.1 SW 19 30 10 16 - - 0.8
23/04:00am 9.7 6.4 9.6 99 0.1 SW 17 24 9 13 - - 0.8
23/03:30am 9.9 6.3 9.8 99 0.1 SW 19 26 10 14 - - 0.6
23/03:00am 10.3 7.1 10.1 99 0.1 SW 17 24 9 13 - - 0.6
23/02:30am 10.7 7.1 10.4 98 0.2 SW 20 30 11 16 - - 0.6
23/02:00am 11.0 7.1 10.7 98 0.2 SW 22 35 12 19 - - 0.6
23/01:30am 12.0 10.1 11.7 98 0.2 SW 13 19 7 10 - - 0.4
23/01:00am 11.9 9.9 11.4 97 0.3 SW 13 17 7 9 - - 0.4
23/12:30am 12.2 9.9 11.6 96 0.3 W 15 24 8 13 - - 0.4
23/12:00am 12.4 9.7 11.8 96 0.3 W 17 24 9 13 - - 0.4
 
Date/Time
EDT
Temp
°C
App
Temp
°C
Dew
Point
Rel
Hum
%
Delta-T
°C
Wind Press
QNH
hPa
Press
MSL
hPa
Rain
since 9 am
mm
Dir
 
Spd
km/h
Gust
km/h
Spd
kts
Gust
kts
22/11:30pm 12.1 9.6 11.2 94 0.5 NW 15 19 8 10 - - 0.4
22/11:00pm 12.6 10.5 11.2 91 0.7 N 13 13 7 7 - - 0.4
22/10:30pm 13.2 10.7 11.1 87 1.1 N 15 17 8 9 - - 0.4
22/10:00pm 13.5 11.0 11.2 86 1.2 N 15 17 8 9 - - 0.4
22/09:30pm 14.8 12.3 11.0 78 2.1 NE 15 17 8 9 - - 0.4
22/09:00pm 14.5 11.3 11.3 81 1.7 NE 19 20 10 11 - - 0.4
22/08:30pm 14.5 11.3 11.8 84 1.5 NE 20 22 11 12 - - 0.4
22/08:00pm 15.2 12.1 11.6 79 2.0 NE 19 20 10 11 - - 0.4
22/07:30pm 15.6 12.6 12.0 79 2.0 NNE 19 24 10 13 - - 0.4
22/07:00pm 16.2 13.1 12.2 77 2.2 NNE 20 24 11 13 - - 0.4
22/06:30pm 16.8 14.0 12.7 77 2.3 NNE 19 24 10 13 - - 0.4
22/06:00pm 16.7 13.7 12.5 76 2.4 NNE 20 26 11 14 - - 0.4
22/05:30pm 17.6 14.6 12.7 73 2.8 NNE 20 28 11 15 - - 0.4
22/05:00pm 17.4 14.6 12.5 73 2.8 NNE 19 26 10 14 - - 0.4
22/04:30pm 19.1 15.8 14.1 73 2.9 N 24 35 13 19 - - 0.4
22/04:00pm 19.1 16.5 13.9 72 3.0 N 20 28 11 15 - - 0.4
22/03:30pm 16.8 13.3 12.3 75 2.5 NE 22 30 12 16 - - 0.4
22/03:00pm 15.6 13.1 14.0 90 0.9 NE 20 26 11 14 - - 0.4
22/02:30pm 15.2 10.3 10.0 71 2.8 NNE 26 32 14 17 - - 0.0
22/02:00pm 14.5 10.0 10.1 75 2.3 NNE 24 32 13 17 - - 0.0
22/01:30pm 15.8 9.8 10.1 69 3.0 NNE 32 37 17 20 - - 0.0
22/01:00pm 15.2 9.1 9.6 69 2.9 NE 32 41 17 22 - - 0.0
22/12:30pm 14.2 10.2 10.6 79 1.9 NNE 22 32 12 17 - - 0.0
22/12:00pm 15.6 10.4 10.4 71 2.8 NE 28 33 15 18 - - 0.0
22/11:30am 14.7 10.0 10.5 76 2.2 NE 26 35 14 19 - - 0.0
22/11:00am 15.0 10.2 11.6 80 1.9 NNE 28 35 15 19 - - 0.0
22/10:30am 13.1 9.1 12.9 99 0.1 NE 26 39 14 21 - - 0.0
22/10:00am 11.5 7.7 11.3 99 0.1 NE 22 30 12 16 - - 0.0
22/09:30am 11.3 6.7 11.1 99 0.1 NE 26 33 14 18 - - 0.0
22/09:00am 11.0 7.5 10.8 99 0.1 NE 20 28 11 15 - - 1.0
22/08:30am 10.7 7.1 10.5 99 0.1 NNE 20 26 11 14 - - 1.0
22/08:00am 10.2 6.5 10.0 99 0.1 NNE 20 24 11 13 - - 1.0
22/07:30am 9.9 6.3 9.8 99 0.1 NE 19 22 10 12 - - 0.8
22/07:00am 9.6 6.3 9.5 99 0.1 NNE 17 20 9 11 - - 0.6
22/06:30am 9.2 5.4 9.1 99 0.1 NNE 19 22 10 12 - - 0.2
22/06:00am 8.8 4.7 8.5 98 0.1 NNE 20 22 11 12 - - 0.0
22/05:30am 8.7 4.7 8.3 97 0.2 NNE 19 20 10 11 - - 0.0
22/05:00am 8.4 4.1 8.0 97 0.2 NNE 20 22 11 12 - - 0.0
22/04:30am 8.3 3.6 7.7 96 0.3 NNE 22 26 12 14 - - 0.0
22/04:00am 8.1 3.3 7.5 96 0.3 NE 22 28 12 15 - - 0.0
22/03:30am 8.0 2.4 7.2 95 0.4 NE 26 30 14 16 - - 0.0
22/03:00am 7.8 2.5 6.7 93 0.5 NE 24 28 13 15 - - 0.0
22/02:30am 8.0 3.1 6.9 93 0.5 NE 22 24 12 13 - - 0.0
22/02:00am 8.0 3.5 6.8 92 0.6 NE 20 24 11 13 - - 0.0
22/01:30am 7.6 2.9 6.2 91 0.6 ENE 20 22 11 12 - - 0.0
22/01:00am 8.0 3.4 6.3 89 0.8 NE 20 22 11 12 - - 0.0
22/12:30am 7.9 3.2 6.2 89 0.8 NE 20 24 11 13 - - 0.0
22/12:00am 8.1 4.0 6.4 89 0.8 NE 17 20 9 11 - - 0.0
 
Date/Time
EDT
Temp
°C
App
Temp
°C
Dew
Point
Rel
Hum
%
Delta-T
°C
Wind Press
QNH
hPa
Press
MSL
hPa
Rain
since 9 am
mm
Dir
 
Spd
km/h
Gust
km/h
Spd
kts
Gust
kts
21/11:30pm 7.8 4.8 6.1 89 0.8 NE 11 13 6 7 - - 0.0
21/11:00pm 7.8 4.8 5.9 88 0.9 N 11 13 6 7 - - 0.0
21/10:30pm 8.3 6.1 6.3 87 0.9 WNW 7 11 4 6 - - 0.0
21/10:00pm 8.5 5.9 6.1 85 1.1 W 9 13 5 7 - - 0.0
21/09:30pm 8.3 5.6 5.6 83 1.2 WNW 9 13 5 7 - - 0.0
21/09:00pm 8.7 6.0 5.4 80 1.5 W 9 15 5 8 - - 0.0
21/08:30pm 9.3 6.1 5.1 75 1.9 W 11 17 6 9 - - 0.0
21/08:00pm 10.2 7.0 5.0 70 2.4 W 11 20 6 11 - - 0.0
21/07:30pm 11.8 8.6 5.0 63 3.2 W 11 17 6 9 - - 0.0
21/07:00pm 12.5 8.4 4.2 57 3.8 WSW 15 26 8 14 - - 0.0
21/06:30pm 13.1 8.7 4.5 56 4.0 WSW 17 26 9 14 - - 0.0
21/06:00pm 13.7 10.0 4.6 54 4.3 WSW 13 22 7 12 - - 0.0
21/05:30pm 13.9 9.8 4.2 52 4.5 SW 15 26 8 14 - - 0.0
21/05:00pm 14.8 10.7 6.1 56 4.3 SW 17 30 9 16 - - 0.0
21/04:30pm 14.4 10.2 5.5 55 4.3 SW 17 35 9 19 - - 0.0
21/04:00pm 13.9 9.0 5.3 56 4.1 SW 20 35 11 19 - - 0.0
21/03:30pm 14.1 8.8 4.9 54 4.4 SW 22 32 12 17 - - 0.0
21/03:00pm 14.3 9.4 4.9 53 4.5 WSW 20 37 11 20 - - 0.0
21/02:30pm 14.5 8.8 4.8 52 4.6 SW 24 35 13 19 - - 0.0
21/02:00pm 14.0 9.4 3.8 50 4.7 SW 17 32 9 17 - - 0.0
21/01:30pm 14.3 9.6 5.1 54 4.4 SW 19 39 10 21 - - 0.0
21/01:00pm 13.4 9.4 6.7 64 3.3 SW 17 28 9 15 - - 0.0
21/12:30pm 11.9 7.1 7.2 73 2.3 SSW 22 35 12 19 - - 0.0
21/12:00pm 11.6 7.3 7.7 77 1.9 SW 20 35 11 19 - - 0.0
21/11:30am 12.0 8.6 11.2 95 0.4 SW 20 37 11 20 - - 0.0
21/11:00am 9.4 4.7 9.3 99 0.1 SW 24 39 13 21 - - 0.0
21/10:30am 9.2 5.8 9.1 99 0.1 SW 17 30 9 16 - - 0.0
21/10:00am 8.8 5.3 8.7 99 0.0 SW 17 26 9 14 - - 0.0
21/09:30am 8.5 4.9 8.4 99 0.0 SW 17 28 9 15 - - 0.0
21/09:00am 8.8 4.7 8.7 99 0.0 SW 20 30 11 16 - - 3.0
21/08:31am 8.1 2.3 8.0 99 0.0 SW 28 46 15 25 - - 2.8
21/08:30am 8.1 2.7 8.0 99 0.0 SW 26 46 14 25 - - 2.8
21/08:00am 8.9 4.5 8.8 99 0.0 SSW 22 32 12 17 - - 2.6
21/07:30am 9.1 4.7 9.0 99 0.0 SSW 22 39 12 21 - - 2.6
21/07:00am 9.4 5.1 9.3 99 0.1 SSW 22 35 12 19 - - 2.6
21/06:30am 9.5 4.8 9.4 99 0.1 SSW 24 35 13 19 - - 2.6
21/06:00am 9.9 6.3 9.8 99 0.1 SW 19 33 10 18 - - 2.4
21/05:30am 10.4 6.3 10.2 99 0.1 SW 22 33 12 18 - - 2.4
21/05:00am 10.6 7.0 10.4 99 0.1 SW 20 30 11 16 - - 2.4
21/04:30am 10.8 7.2 10.6 99 0.1 SW 20 28 11 15 - - 2.4
21/04:00am 11.1 8.2 10.9 99 0.1 SW 17 32 9 17 - - 2.4
21/03:30am 11.2 8.3 11.0 99 0.1 SW 17 26 9 14 - - 2.4
21/03:00am 11.4 8.6 11.2 99 0.1 WSW 17 26 9 14 - - 2.4
21/02:30am 11.6 9.6 11.4 99 0.1 WSW 13 20 7 11 - - 2.4
21/02:00am 11.8 9.5 11.6 99 0.1 WSW 15 24 8 13 - - 2.4
21/01:30am 11.9 9.6 11.7 99 0.1 W 15 26 8 14 - - 2.2
21/01:00am 12.0 9.7 11.8 99 0.1 W 15 20 8 11 - - 2.2
21/12:30am 12.1 9.5 11.9 99 0.1 WNW 17 24 9 13 - - 2.2
21/12:00am 12.0 9.7 11.8 99 0.1 WNW 15 20 8 11 - - 2.2
 
Date/Time
EDT
Temp
°C
App
Temp
°C
Dew
Point
Rel
Hum
%
Delta-T
°C
Wind Press
QNH
hPa
Press
MSL
hPa
Rain
since 9 am
mm
Dir
 
Spd
km/h
Gust
km/h
Spd
kts
Gust
kts
20/11:30pm 12.2 10.0 12.0 99 0.1 WNW 15 20 8 11 - - 2.2
20/11:00pm 12.5 10.4 12.3 99 0.1 WNW 15 20 8 11 - - 2.2
20/10:30pm 12.7 9.9 12.5 99 0.1 NW 19 24 10 13 - - 2.2

Other Formats:

Comma delimited format used in spreadsheet applications
http://www.bom.gov.au/fwo/IDT60801/IDT60801.95956.axf

JavaScript Object Notation format (JSON) in row-major order
http://www.bom.gov.au/fwo/IDT60801/IDT60801.95956.json